Time;durP1;ratioP1;P1;durP2;ratioP2;P2;SDS_P1;SDS_P2;PMS_P1;PMS_P2;Temp;Humidity;BMP_temperature;BMP_pressure;BME280_temperature;BME280_humidity;BME280_pressure;Samples;Min_cycle;Max_cycle;Signal;HPM_P1;HPM_P2
2023/02/12 00:01:38;;;;;;;46.70;28.45;;;5.30;76.10;;;;;;5024413;28;20076;-58
2023/02/12 00:04:04;;;;;;;50.28;29.05;;;5.30;76.10;;;;;;5031663;28;20069;-61
2023/02/12 00:06:30;;;;;;;48.65;29.52;;;5.30;77.10;;;;;;5023683;28;20045;-59
2023/02/12 00:08:58;;;;;;;46.15;28.13;;;5.20;76.20;;;;;;5027300;28;20525;-56
2023/02/12 00:11:26;;;;;;;46.70;27.40;;;5.20;76.30;;;;;;5026990;28;20116;-60
2023/02/12 00:13:53;;;;;;;47.63;27.30;;;5.20;76.40;;;;;;5026722;28;20041;-59
2023/02/12 00:16:21;;;;;;;44.92;25.77;;;5.20;76.40;;;;;;5027927;28;20037;-59
2023/02/12 00:18:49;;;;;;;48.30;26.00;;;5.20;77.40;;;;;;5028053;28;20049;-59
2023/02/12 00:21:16;;;;;;;47.75;25.80;;;5.10;76.60;;;;;;5026947;28;22061;-60
2023/02/12 00:23:42;;;;;;;44.20;25.45;;;5.10;76.70;;;;;;5031637;28;20118;-58
2023/02/12 00:26:10;;;;;;;43.83;26.20;;;5.10;76.70;;;;;;5032295;28;20448;-60
2023/02/12 00:28:36;;;;;;;43.75;24.73;;;5.10;76.80;;;;;;5027352;28;20497;-61
2023/02/12 00:31:16;;;;;;;41.40;25.58;;;5.10;77.80;;;;;;5024691;28;20107;-59
2023/02/12 00:33:42;;;;;;;43.33;25.75;;;5.10;77.10;;;;;;5026652;28;20037;-60
2023/02/12 00:36:09;;;;;;;43.92;26.15;;;5.10;76.90;;;;;;5026280;28;20068;-60
2023/02/12 00:38:34;;;;;;;42.50;25.80;;;5.10;76.90;;;;;;5030399;28;20033;-60
2023/02/12 00:41:00;;;;;;;43.75;26.75;;;5.10;77.00;;;;;;5027264;28;20037;-59
2023/02/12 00:43:26;;;;;;;44.85;26.42;;;5.10;77.00;;;;;;5027227;28;20076;-59
2023/02/12 00:45:51;;;;;;;42.78;25.50;;;5.10;77.00;;;;;;5024986;28;20180;-60
2023/02/12 00:48:17;;;;;;;45.97;27.08;;;5.10;77.00;;;;;;5025709;28;20037;-61
2023/02/12 00:50:47;;;;;;;45.63;26.83;;;5.10;77.00;;;;;;5029475;28;20111;-55
2023/02/12 00:53:13;;;;;;;46.45;27.38;;;5.10;77.10;;;;;;5026558;28;20045;-59
2023/02/12 00:55:39;;;;;;;45.83;27.70;;;5.10;76.90;;;;;;5032813;28;20042;-60
2023/02/12 00:58:05;;;;;;;46.95;27.38;;;5.10;76.90;;;;;;5031236;28;20033;-60
2023/02/12 01:00:30;;;;;;;46.20;27.02;;;5.20;76.90;;;;;;5022710;28;20037;-61
2023/02/12 01:02:56;;;;;;;44.28;25.90;;;5.20;76.90;;;;;;5027033;28;20485;-60
2023/02/12 01:05:22;;;;;;;43.90;26.00;;;5.20;76.90;;;;;;5025791;28;20144;-59
2023/02/12 01:07:52;;;;;;;44.13;26.40;;;5.20;76.80;;;;;;5031499;28;20575;-59
2023/02/12 01:10:19;;;;;;;43.25;25.13;;;5.30;77.00;;;;;;5028499;28;20452;-59
2023/02/12 01:12:45;;;;;;;47.22;26.73;;;5.20;76.80;;;;;;5023244;28;20051;-61
2023/02/12 01:15:11;;;;;;;43.97;25.63;;;5.20;76.80;;;;;;5027686;28;20404;-59
2023/02/12 01:17:37;;;;;;;44.80;25.55;;;5.20;76.90;;;;;;5024132;28;20041;-57
2023/02/12 01:20:06;;;;;;;41.92;25.58;;;5.20;76.90;;;;;;5028235;28;20033;-60
2023/02/12 01:22:33;;;;;;;42.05;24.08;;;5.20;76.90;;;;;;5032870;28;20045;-60
2023/02/12 01:24:59;;;;;;;40.65;24.63;;;5.20;76.90;;;;;;5033399;28;20505;-59
2023/02/12 01:27:24;;;;;;;41.03;24.27;;;5.30;76.90;;;;;;5029590;28;20041;-59
2023/02/12 01:29:50;;;;;;;40.13;24.55;;;5.30;77.00;;;;;;5026875;28;20029;-58
2023/02/12 01:32:16;;;;;;;40.20;23.95;;;5.30;77.00;;;;;;5026605;28;20358;-59
2023/02/12 01:34:41;;;;;;;42.45;23.92;;;5.30;76.90;;;;;;5019887;28;20034;-59
2023/02/12 01:37:07;;;;;;;40.83;23.67;;;5.30;76.90;;;;;;5025881;28;20033;-59
2023/02/12 01:39:34;;;;;;;38.53;22.75;;;5.30;77.00;;;;;;5028289;28;20112;-58
2023/02/12 01:42:01;;;;;;;37.78;23.60;;;5.30;76.90;;;;;;5032409;28;20539;-57
2023/02/12 01:44:30;;;;;;;43.33;25.38;;;5.30;76.90;;;;;;5032801;28;20046;-59
2023/02/12 01:47:02;;;;;;;43.53;25.83;;;5.30;76.90;;;;;;5031679;28;20514;-58
2023/02/12 01:49:35;;;;;;;45.65;27.35;;;5.30;76.90;;;;;;5024277;28;20380;-59
2023/02/12 01:52:06;;;;;;;47.05;28.02;;;5.30;76.90;;;;;;5030618;28;20120;-61
2023/02/12 01:54:34;;;;;;;43.88;27.52;;;5.30;77.10;;;;;;5024411;28;20519;-58
2023/02/12 01:57:01;;;;;;;46.22;27.63;;;5.30;77.00;;;;;;5027015;28;20560;-58
2023/02/12 01:59:28;;;;;;;47.88;27.02;;;5.30;77.10;;;;;;5027436;28;20630;-60
2023/02/12 02:01:54;;;;;;;43.38;26.80;;;5.30;77.10;;;;;;5019477;28;20079;-60
2023/02/12 02:04:23;;;;;;;42.45;27.02;;;5.30;76.90;;;;;;5023976;28;21341;-60
2023/02/12 02:06:58;;;;;;;41.42;25.02;;;5.30;77.10;;;;;;5019899;28;20238;-60
2023/02/12 02:09:24;;;;;;;42.08;25.27;;;5.40;77.20;;;;;;5027100;28;20084;-60
2023/02/12 02:14:35;;;;;;;48.30;26.88;;;5.30;77.10;;;;;;5029657;28;20047;-61
2023/02/12 02:17:19;;;;;;;44.85;26.20;;;5.30;77.10;;;;;;5026492;28;20083;-61
2023/02/12 02:20:05;;;;;;;47.35;26.40;;;5.40;77.30;;;;;;5023945;28;20041;-59
2023/02/12 02:22:46;;;;;;;43.53;24.83;;;5.40;77.10;;;;;;5027212;28;20037;-58
2023/02/12 02:25:35;;;;;;;41.38;22.80;;;5.40;77.30;;;;;;5027360;28;20370;-60
2023/02/12 02:28:05;;;;;;;42.63;25.17;;;5.40;77.30;;;;;;5028285;28;20038;-60
2023/02/12 02:30:47;;;;;;;41.30;25.70;;;5.40;77.10;;;;;;5024053;28;20124;-60
2023/02/12 02:33:36;;;;;;;43.78;26.48;;;5.40;77.10;;;;;;5026853;28;20405;-60
2023/02/12 02:36:23;;;;;;;44.47;27.85;;;5.40;77.10;;;;;;5024406;28;20041;-60
2023/02/12 02:39:14;;;;;;;42.65;26.88;;;5.40;77.20;;;;;;5026424;28;20041;-61
2023/02/12 02:42:04;;;;;;;42.58;24.60;;;5.40;77.40;;;;;;5037540;28;20108;-61
2023/02/12 02:44:47;;;;;;;47.38;26.75;;;5.40;77.60;;;;;;5032099;28;20057;-59
2023/02/12 02:47:14;;;;;;;43.58;26.10;;;5.40;77.60;;;;;;5027817;28;20599;-61
2023/02/12 02:49:46;;;;;;;45.50;26.75;;;5.30;77.30;;;;;;5035152;28;20093;-61
2023/02/12 02:52:18;;;;;;;42.60;25.65;;;5.40;77.60;;;;;;5029158;28;20512;-60
2023/02/12 02:54:52;;;;;;;43.97;25.20;;;5.40;77.60;;;;;;5029184;28;20607;-60
2023/02/12 02:57:30;;;;;;;45.33;26.38;;;5.30;77.60;;;;;;5032163;28;20056;-60
2023/02/12 03:00:06;;;;;;;42.45;26.05;;;5.30;77.60;;;;;;5025416;28;20038;-59
2023/02/12 03:02:36;;;;;;;47.65;26.88;;;5.30;77.60;;;;;;5025473;28;20084;-59
2023/02/12 03:05:13;;;;;;;49.20;28.10;;;5.30;77.50;;;;;;5024470;28;20383;-58
2023/02/12 03:07:51;;;;;;;44.80;27.23;;;5.30;77.60;;;;;;5028190;28;20045;-61
2023/02/12 03:10:22;;;;;;;45.92;25.65;;;5.30;77.60;;;;;;5030110;28;20037;-59
2023/02/12 03:13:06;;;;;;;46.30;27.50;;;5.30;77.60;;;;;;5025946;28;20558;-60
2023/02/12 03:15:51;;;;;;;43.90;26.40;;;5.30;77.90;;;;;;5029669;28;20037;-60
2023/02/12 03:18:26;;;;;;;46.65;27.23;;;5.30;77.90;;;;;;5030450;28;20025;-60
2023/02/12 03:20:58;;;;;;;47.40;28.33;;;5.30;77.60;;;;;;5033398;28;20564;-59
2023/02/12 03:23:29;;;;;;;49.63;29.23;;;5.30;77.60;;;;;;5029275;28;20026;-58
2023/02/12 03:26:02;;;;;;;47.78;29.70;;;5.30;77.60;;;;;;5030179;28;20034;-59
2023/02/12 03:28:33;;;;;;;51.92;29.20;;;5.20;77.60;;;;;;5030408;28;20484;-59
2023/02/12 03:31:36;;;;;;;52.15;29.80;;;5.20;77.50;;;;;;5030525;28;20029;-60
2023/02/12 03:34:31;;;;;;;49.55;28.80;;;5.20;77.80;;;;;;5027616;28;20030;-61
2023/02/12 03:37:12;;;;;;;51.70;30.83;;;5.20;78.00;;;;;;5016844;28;20087;-60
2023/02/12 03:39:52;;;;;;;47.20;29.05;;;5.20;77.80;;;;;;5032507;28;20052;-59
2023/02/12 03:42:18;;;;;;;50.53;29.73;;;5.20;77.80;;;;;;5024506;28;20049;-62
2023/02/12 03:44:55;;;;;;;49.50;27.80;;;5.20;77.60;;;;;;5030229;28;20033;-60
2023/02/12 03:47:35;;;;;;;46.28;27.20;;;5.30;77.80;;;;;;5028057;28;20029;-60
2023/02/12 03:50:15;;;;;;;49.97;29.90;;;5.30;77.60;;;;;;5027997;28;20029;-58
2023/02/12 03:52:42;;;;;;;50.30;29.20;;;5.30;77.90;;;;;;5027488;28;20036;-59
2023/02/12 03:55:08;;;;;;;47.63;28.70;;;5.30;77.70;;;;;;5030926;28;20057;-60
2023/02/12 03:57:41;;;;;;;48.38;27.92;;;5.30;77.70;;;;;;5030008;28;20493;-59
2023/02/12 04:00:11;;;;;;;49.15;27.60;;;5.30;77.80;;;;;;5027139;28;20038;-61
2023/02/12 04:02:37;;;;;;;53.15;31.13;;;5.30;77.80;;;;;;5026218;28;20528;-60
2023/02/12 04:05:08;;;;;;;47.70;30.40;;;5.30;77.70;;;;;;5028296;28;20042;-59
2023/02/12 04:07:35;;;;;;;50.33;30.35;;;5.30;77.70;;;;;;5029579;28;20512;-60
2023/02/12 04:10:01;;;;;;;49.05;29.25;;;5.30;77.80;;;;;;5024575;28;20509;-58
2023/02/12 04:13:03;;;;;;;50.03;30.10;;;5.30;77.60;;;;;;5021430;28;20036;-58
2023/02/12 04:15:53;;;;;;;49.72;29.15;;;5.30;77.80;;;;;;5031355;28;20041;-60
2023/02/12 04:18:26;;;;;;;50.08;28.05;;;5.30;77.60;;;;;;5029726;28;20574;-58
2023/02/12 04:21:15;;;;;;;49.20;28.52;;;5.30;77.60;;;;;;5025769;28;20033;-58
2023/02/12 04:23:46;;;;;;;51.13;30.20;;;5.30;77.60;;;;;;5026909;28;20400;-58
2023/02/12 04:26:23;;;;;;;49.33;30.33;;;5.30;77.70;;;;;;5029027;28;20898;-58
2023/02/12 04:29:07;;;;;;;52.78;29.95;;;5.30;77.60;;;;;;5028863;28;20520;-58
2023/02/12 04:31:45;;;;;;;47.55;29.58;;;5.30;77.80;;;;;;5028226;28;21352;-58
2023/02/12 04:34:38;;;;;;;48.33;29.20;;;5.30;77.60;;;;;;5026569;28;20387;-59
2023/02/12 04:37:21;;;;;;;49.15;28.65;;;5.30;77.80;;;;;;5026279;28;20038;-57
2023/02/12 04:39:48;;;;;;;50.70;30.13;;;5.30;77.60;;;;;;5029097;28;20049;-58
2023/02/12 04:42:14;;;;;;;49.75;29.70;;;5.30;77.60;;;;;;5028666;28;20041;-58
2023/02/12 04:44:42;;;;;;;54.72;31.17;;;5.30;77.60;;;;;;5025666;28;20041;-59
2023/02/12 04:47:11;;;;;;;51.28;30.23;;;5.30;77.80;;;;;;5025702;28;20509;-60
2023/02/12 04:49:37;;;;;;;55.90;30.75;;;5.30;77.80;;;;;;5028890;28;20041;-59
2023/02/12 04:52:02;;;;;;;50.72;30.88;;;5.30;77.80;;;;;;5030274;28;20040;-60
2023/02/12 04:54:28;;;;;;;50.70;30.60;;;5.30;77.80;;;;;;5022675;28;20045;-58
2023/02/12 04:56:53;;;;;;;50.55;31.35;;;5.30;77.80;;;;;;5033019;28;20037;-60
2023/02/12 04:59:19;;;;;;;52.05;31.17;;;5.30;77.80;;;;;;5029745;28;20041;-61
2023/02/12 05:01:45;;;;;;;56.33;32.90;;;5.30;77.80;;;;;;5023745;28;20179;-59
2023/02/12 05:04:13;;;;;;;46.60;28.85;;;5.30;77.80;;;;;;5029108;28;20110;-57
2023/02/12 05:06:40;;;;;;;53.80;31.98;;;5.30;77.90;;;;;;5023365;28;21252;-60
2023/02/12 05:09:06;;;;;;;53.28;32.38;;;5.30;78.00;;;;;;5029715;28;20467;-60
2023/02/12 05:11:32;;;;;;;56.22;32.88;;;5.30;78.00;;;;;;5021002;28;20074;-60
2023/02/12 05:13:58;;;;;;;54.35;32.28;;;5.30;78.00;;;;;;5028572;28;20030;-59
2023/02/12 05:16:24;;;;;;;55.83;32.65;;;5.30;78.10;;;;;;5027169;28;20044;-60
2023/02/12 05:18:50;;;;;;;51.80;31.38;;;5.30;78.10;;;;;;5030697;28;20049;-59
2023/02/12 05:21:15;;;;;;;53.90;32.60;;;5.30;78.20;;;;;;5021521;28;20356;-58
2023/02/12 05:23:41;;;;;;;54.50;31.08;;;5.30;78.30;;;;;;5028189;28;20171;-60
2023/02/12 05:26:14;;;;;;;56.47;31.98;;;5.20;78.30;;;;;;5026987;28;20037;-60
2023/02/12 05:28:40;;;;;;;54.55;31.33;;;5.20;78.50;;;;;;5028488;28;20572;-58
2023/02/12 05:31:08;;;;;;;50.13;30.85;;;5.20;78.60;;;;;;5030426;28;20033;-56
2023/02/12 05:33:34;;;;;;;50.72;31.13;;;5.20;78.70;;;;;;5029693;28;20037;-57
2023/02/12 05:36:08;;;;;;;53.30;31.33;;;5.20;78.80;;;;;;5033194;28;20409;-60
2023/02/12 05:38:34;;;;;;;54.58;30.88;;;5.20;78.80;;;;;;5033381;28;20116;-59
2023/02/12 05:41:01;;;;;;;52.03;30.23;;;5.20;78.70;;;;;;5021905;28;20608;-60
2023/02/12 05:43:27;;;;;;;52.35;31.35;;;5.30;78.80;;;;;;5026142;28;20060;-60
2023/02/12 05:45:52;;;;;;;51.95;31.40;;;5.30;78.90;;;;;;5029240;28;20424;-59
2023/02/12 05:48:18;;;;;;;54.75;30.75;;;5.30;78.90;;;;;;5027373;28;20416;-58
2023/02/12 05:50:44;;;;;;;55.85;31.02;;;5.30;79.00;;;;;;5028709;28;20049;-59
2023/02/12 05:53:09;;;;;;;52.90;30.63;;;5.20;79.00;;;;;;5030246;28;20042;-58
2023/02/12 05:55:35;;;;;;;53.08;31.30;;;5.30;79.20;;;;;;5025968;28;20593;-59
2023/02/12 05:58:00;;;;;;;49.97;30.50;;;5.30;79.20;;;;;;5024945;28;20042;-58
2023/02/12 06:00:26;;;;;;;52.17;30.73;;;5.30;79.20;;;;;;5027265;28;20043;-59
2023/02/12 06:02:51;;;;;;;53.58;29.25;;;5.30;79.30;;;;;;5028802;28;20452;-60
2023/02/12 06:05:17;;;;;;;50.83;30.17;;;5.30;79.30;;;;;;5030760;28;20034;-59
2023/02/12 06:07:42;;;;;;;52.60;30.85;;;5.30;79.20;;;;;;5026929;28;20029;-60
2023/02/12 06:10:08;;;;;;;58.80;31.95;;;5.30;79.20;;;;;;5026831;28;20039;-60
2023/02/12 06:12:34;;;;;;;56.22;31.95;;;5.40;79.30;;;;;;5015429;28;20064;-60
2023/02/12 06:14:59;;;;;;;50.58;30.10;;;5.30;79.40;;;;;;5028071;28;20524;-61
2023/02/12 06:17:25;;;;;;;55.17;29.90;;;5.30;79.50;;;;;;5026271;28;20091;-58
2023/02/12 06:19:51;;;;;;;49.38;29.25;;;5.30;79.50;;;;;;5029919;28;20428;-58
2023/02/12 06:22:16;;;;;;;47.75;29.33;;;5.30;79.70;;;;;;5027590;28;20033;-61
2023/02/12 06:24:42;;;;;;;45.63;28.15;;;5.30;79.90;;;;;;5022579;28;20033;-59
2023/02/12 06:27:07;;;;;;;48.83;28.88;;;5.30;79.80;;;;;;5024364;28;20037;-61
2023/02/12 06:29:33;;;;;;;49.45;29.92;;;5.30;79.80;;;;;;5020673;28;21146;-61
2023/02/12 06:31:58;;;;;;;55.30;32.10;;;5.20;79.90;;;;;;5029665;28;20045;-61
2023/02/12 06:34:24;;;;;;;58.97;32.33;;;5.20;79.90;;;;;;5035298;28;20044;-60
2023/02/12 06:36:49;;;;;;;55.10;33.38;;;5.10;80.80;;;;;;5027311;28;20387;-60
2023/02/12 06:39:16;;;;;;;60.13;31.65;;;5.00;80.10;;;;;;5031290;28;20120;-58
2023/02/12 06:41:42;;;;;;;52.13;30.80;;;4.90;80.20;;;;;;5031787;28;20037;-58
2023/02/12 06:44:11;;;;;;;57.60;33.17;;;4.90;80.40;;;;;;5032128;28;20076;-59
2023/02/12 06:46:36;;;;;;;59.90;33.55;;;4.90;80.50;;;;;;5031458;28;20037;-60
2023/02/12 06:49:02;;;;;;;61.20;33.78;;;4.90;80.60;;;;;;5033191;28;20143;-58
2023/02/12 06:51:30;;;;;;;54.38;32.17;;;4.90;80.70;;;;;;5025550;28;20496;-58
2023/02/12 06:53:55;;;;;;;55.13;32.58;;;4.90;80.60;;;;;;5031403;28;20288;-59
2023/02/12 06:56:22;;;;;;;60.63;33.13;;;4.90;80.60;;;;;;5027709;28;20033;-60
2023/02/12 06:58:53;;;;;;;61.92;33.70;;;4.90;80.70;;;;;;5031757;28;20535;-57
2023/02/12 07:01:25;;;;;;;58.80;33.42;;;4.90;80.70;;;;;;5025545;28;20425;-59
2023/02/12 07:04:01;;;;;;;76.45;37.55;;;4.90;80.70;;;;;;5025667;28;20042;-59
2023/02/12 07:06:28;;;;;;;75.85;39.28;;;4.90;80.80;;;;;;5008519;28;20335;-59
2023/02/12 07:08:55;;;;;;;63.13;35.90;;;4.90;80.70;;;;;;5015473;28;20041;-58
2023/02/12 07:11:25;;;;;;;62.17;35.08;;;4.90;80.80;;;;;;5019908;28;20390;-59
2023/02/12 07:13:51;;;;;;;60.47;33.97;;;5.00;81.20;;;;;;5021130;28;20037;-59
2023/02/12 07:16:17;;;;;;;59.22;33.40;;;4.90;81.20;;;;;;5020390;28;20463;-59
2023/02/12 07:18:43;;;;;;;55.50;32.28;;;5.00;81.40;;;;;;5019076;28;20045;-60
2023/02/12 07:21:10;;;;;;;55.38;31.95;;;5.00;81.40;;;;;;5022394;28;20232;-58
2023/02/12 07:23:36;;;;;;;59.55;32.03;;;5.10;81.60;;;;;;5017093;28;20034;-59
2023/02/12 07:26:05;;;;;;;53.92;30.38;;;5.10;81.60;;;;;;5015943;28;20144;-59
2023/02/12 07:28:34;;;;;;;56.20;31.73;;;5.10;81.70;;;;;;5024463;28;20049;-58
2023/02/12 07:31:07;;;;;;;53.67;29.23;;;5.10;81.70;;;;;;5019720;28;20050;-58
2023/02/12 07:33:34;;;;;;;54.70;29.17;;;5.10;82.00;;;;;;5024975;28;20487;-58
2023/02/12 07:36:00;;;;;;;56.47;28.63;;;5.20;82.00;;;;;;5018416;28;20156;-58
2023/02/12 07:38:27;;;;;;;55.03;27.55;;;5.20;82.10;;;;;;5020885;28;20037;-60
2023/02/12 07:40:52;;;;;;;57.72;28.73;;;5.30;82.20;;;;;;5025303;28;20103;-59
2023/02/12 07:43:18;;;;;;;50.33;26.65;;;5.30;82.40;;;;;;5020995;28;20496;-60
2023/02/12 07:45:43;;;;;;;49.88;26.13;;;5.30;82.50;;;;;;5016149;28;20622;-59
2023/02/12 07:48:09;;;;;;;52.45;25.02;;;5.40;82.60;;;;;;5027804;28;20051;-60
2023/02/12 07:50:34;;;;;;;45.80;23.25;;;5.40;82.80;;;;;;5024251;28;20113;-59
2023/02/12 07:53:00;;;;;;;49.97;25.00;;;5.50;83.60;;;;;;5021287;28;20033;-59
2023/02/12 07:55:25;;;;;;;49.35;25.27;;;5.50;83.10;;;;;;5030984;28;20037;-58
2023/02/12 07:57:51;;;;;;;50.20;25.33;;;5.50;83.10;;;;;;5019699;28;20041;-59
2023/02/12 08:00:17;;;;;;;51.53;25.00;;;5.60;83.20;;;;;;5015359;28;20568;-58
2023/02/12 08:02:42;;;;;;;51.10;25.70;;;5.60;83.20;;;;;;5020111;28;20112;-59
2023/02/12 08:05:08;;;;;;;55.72;26.05;;;5.60;83.20;;;;;;5020173;28;20049;-59
2023/02/12 08:07:34;;;;;;;50.22;25.33;;;5.70;83.20;;;;;;5022265;28;20041;-59
2023/02/12 08:09:59;;;;;;;51.20;25.08;;;5.70;83.20;;;;;;5026999;28;20030;-59
2023/02/12 08:12:25;;;;;;;49.92;24.35;;;5.70;83.30;;;;;;5018261;28;20673;-59
2023/02/12 08:14:50;;;;;;;50.97;24.58;;;5.80;83.30;;;;;;5021833;28;20907;-59
2023/02/12 08:17:16;;;;;;;49.67;24.48;;;5.80;83.30;;;;;;5024826;28;20543;-58
2023/02/12 08:19:41;;;;;;;44.00;23.77;;;5.90;83.40;;;;;;5019152;28;20045;-58
2023/02/12 08:22:07;;;;;;;45.42;23.67;;;5.90;83.30;;;;;;5025752;28;20479;-58
2023/02/12 08:24:32;;;;;;;44.80;22.58;;;5.90;83.30;;;;;;5018020;28;20033;-58
2023/02/12 08:26:58;;;;;;;46.85;24.23;;;6.00;83.40;;;;;;5026369;28;20033;-60
2023/02/12 08:29:27;;;;;;;47.33;23.60;;;6.00;83.40;;;;;;5019803;28;20207;-57
2023/02/12 08:32:01;;;;;;;41.22;22.98;;;6.10;83.50;;;;;;5022041;28;20030;-58
2023/02/12 08:34:29;;;;;;;46.10;25.13;;;6.10;83.50;;;;;;5028003;28;20430;-58
2023/02/12 08:36:56;;;;;;;47.20;25.65;;;6.10;83.30;;;;;;5022004;28;20540;-58
2023/02/12 08:39:23;;;;;;;50.90;27.40;;;6.20;83.30;;;;;;5029321;28;20045;-59
2023/02/12 08:41:49;;;;;;;45.88;25.02;;;6.20;83.30;;;;;;5026590;28;20140;-59
2023/02/12 08:44:16;;;;;;;50.40;25.88;;;6.20;83.20;;;;;;5025702;28;20386;-60
2023/02/12 08:46:46;;;;;;;47.17;25.35;;;6.30;83.30;;;;;;5015858;28;20572;-57
2023/02/12 08:49:14;;;;;;;49.42;25.70;;;6.30;83.40;;;;;;5023101;28;20464;-58
2023/02/12 08:51:47;;;;;;;52.72;26.45;;;6.40;83.40;;;;;;5026308;28;20137;-58
2023/02/12 08:54:16;;;;;;;51.10;24.17;;;6.40;83.50;;;;;;5024545;28;20117;-58
2023/02/12 08:56:44;;;;;;;50.20;24.95;;;6.40;83.60;;;;;;5020395;28;20682;-58
2023/02/12 08:59:11;;;;;;;47.38;24.48;;;6.40;83.50;;;;;;5031007;28;20504;-58
2023/02/12 09:01:37;;;;;;;51.63;25.42;;;6.40;83.50;;;;;;5017254;28;20069;-58
2023/02/12 09:04:04;;;;;;;47.47;24.85;;;6.40;83.50;;;;;;5026832;28;20040;-60
2023/02/12 09:06:33;;;;;;;47.67;24.63;;;6.50;83.50;;;;;;5020790;28;20306;-57
2023/02/12 09:08:59;;;;;;;44.83;23.75;;;6.50;83.60;;;;;;5023222;28;20523;-59
2023/02/12 09:11:29;;;;;;;44.00;23.35;;;6.50;83.50;;;;;;5017961;28;20034;-58
2023/02/12 09:14:06;;;;;;;32.13;17.02;;;6.60;83.50;;;;;;5025638;28;20620;-57
2023/02/12 09:16:33;;;;;;;22.90;13.27;;;6.60;83.30;;;;;;5022913;28;20037;-58
2023/02/12 09:18:59;;;;;;;15.60;8.52;;;6.70;83.30;;;;;;5021912;28;20131;-59
2023/02/12 09:21:25;;;;;;;10.82;6.53;;;6.70;83.10;;;;;;5019377;28;20041;-58
2023/02/12 09:23:51;;;;;;;9.35;5.90;;;6.70;82.90;;;;;;5025687;28;20086;-58
2023/02/12 09:26:19;;;;;;;8.80;5.35;;;6.80;82.90;;;;;;5028912;28;20400;-58
2023/02/12 09:28:46;;;;;;;6.97;4.70;;;6.80;82.70;;;;;;5031082;28;20037;-60
2023/02/12 09:31:13;;;;;;;7.18;5.18;;;6.80;82.50;;;;;;5019170;28;20494;-58
2023/02/12 09:33:40;;;;;;;6.93;4.78;;;6.90;82.40;;;;;;5027573;28;20107;-55
2023/02/12 09:36:11;;;;;;;6.88;4.78;;;6.90;82.30;;;;;;5022496;28;20040;-58
2023/02/12 09:38:37;;;;;;;6.60;4.88;;;7.00;82.30;;;;;;5020039;28;20483;-58
2023/02/12 09:41:09;;;;;;;6.60;4.65;;;7.00;82.10;;;;;;5023859;28;20156;-59
2023/02/12 09:43:55;;;;;;;6.13;4.40;;;7.00;82.00;;;;;;5025109;28;20037;-57
2023/02/12 09:46:36;;;;;;;6.85;4.90;;;7.10;82.10;;;;;;5025640;28;20112;-56
2023/02/12 09:49:08;;;;;;;6.72;5.07;;;7.10;81.90;;;;;;5020955;28;20025;-60
2023/02/12 09:51:36;;;;;;;7.47;5.30;;;7.20;81.90;;;;;;5029046;28;20034;-57
2023/02/12 09:54:11;;;;;;;6.10;4.55;;;7.20;81.90;;;;;;5025452;28;20580;-58
2023/02/12 09:56:39;;;;;;;6.18;4.43;;;7.30;81.70;;;;;;5034705;28;20030;-60
2023/02/12 09:59:07;;;;;;;7.07;5.00;;;7.30;81.70;;;;;;5031462;28;20598;-60
2023/02/12 10:01:34;;;;;;;6.75;4.93;;;7.40;81.50;;;;;;5029099;28;20043;-58
2023/02/12 10:04:00;;;;;;;6.63;4.82;;;7.40;81.30;;;;;;5030363;28;20037;-58
2023/02/12 10:06:40;;;;;;;7.70;5.22;;;7.50;81.30;;;;;;5032153;28;20508;-59
2023/02/12 10:09:32;;;;;;;7.70;5.50;;;7.50;81.20;;;;;;5031177;28;20112;-60
2023/02/12 10:12:22;;;;;;;7.13;5.18;;;7.60;81.00;;;;;;5020190;28;22544;-58
2023/02/12 10:14:58;;;;;;;6.85;5.03;;;7.60;80.90;;;;;;5027756;28;20460;-58
2023/02/12 10:17:50;;;;;;;9.73;6.20;;;7.60;80.80;;;;;;5031055;28;20029;-56
2023/02/12 10:20:31;;;;;;;10.48;6.50;;;7.70;81.10;;;;;;5032354;28;20124;-58
2023/02/12 10:23:21;;;;;;;8.80;6.30;;;7.70;81.00;;;;;;5025859;28;20041;-58
2023/02/12 10:25:49;;;;;;;9.13;6.55;;;7.80;81.80;;;;;;5031151;28;20544;-57
2023/02/12 10:28:19;;;;;;;9.07;6.18;;;7.80;80.70;;;;;;5027799;28;20037;-59
2023/02/12 10:30:58;;;;;;;9.35;6.40;;;7.90;80.80;;;;;;5031227;28;20410;-58
2023/02/12 10:33:35;;;;;;;10.50;6.68;;;7.90;80.90;;;;;;5030916;28;20721;-59
2023/02/12 10:36:36;;;;;;;9.90;6.70;;;7.90;80.80;;;;;;5031401;28;20038;-59
2023/02/12 10:39:20;;;;;;;9.98;6.13;;;8.00;81.00;;;;;;5029423;28;20420;-57
2023/02/12 10:41:55;;;;;;;10.70;7.15;;;8.00;80.70;;;;;;5029514;28;20585;-60
2023/02/12 10:44:20;;;;;;;9.70;6.70;;;8.10;80.50;;;;;;5033602;28;20036;-59
2023/02/12 10:46:46;;;;;;;11.50;6.82;;;8.10;80.40;;;;;;5028871;28;20520;-58
2023/02/12 10:49:15;;;;;;;10.57;6.45;;;8.20;80.50;;;;;;5029793;28;20033;-59
2023/02/12 10:51:59;;;;;;;12.18;6.72;;;8.20;80.60;;;;;;5030456;28;20033;-59
2023/02/12 10:54:36;;;;;;;12.50;6.33;;;8.20;80.70;;;;;;5029635;28;20133;-59
2023/02/12 10:57:24;;;;;;;13.30;7.10;;;8.30;80.80;;;;;;5034491;28;20276;-59
2023/02/12 10:59:52;;;;;;;6.55;4.70;;;8.40;80.70;;;;;;5035041;28;20451;-60
2023/02/12 11:02:18;;;;;;;7.30;4.95;;;8.40;80.40;;;;;;5036487;28;20413;-60
2023/02/12 11:04:43;;;;;;;5.05;3.78;;;8.50;80.30;;;;;;5038902;28;20039;-59
2023/02/12 11:07:09;;;;;;;5.78;3.65;;;8.50;80.10;;;;;;5032346;28;20037;-58
2023/02/12 11:09:44;;;;;;;4.90;3.50;;;8.60;79.90;;;;;;5028696;28;20480;-59
2023/02/12 11:12:33;;;;;;;4.97;3.42;;;8.60;79.80;;;;;;5036121;28;20455;-58
2023/02/12 11:15:03;;;;;;;4.88;3.70;;;8.60;79.70;;;;;;5037204;28;20034;-57
2023/02/12 11:17:37;;;;;;;6.18;4.20;;;8.70;79.80;;;;;;5040149;28;20121;-57
2023/02/12 11:20:15;;;;;;;7.60;4.70;;;8.70;79.80;;;;;;5038839;28;20037;-60
2023/02/12 11:22:59;;;;;;;9.68;5.85;;;8.80;79.90;;;;;;5039821;28;20033;-59
2023/02/12 11:25:33;;;;;;;12.48;8.00;;;8.80;80.00;;;;;;5036258;28;20167;-58
2023/02/12 11:28:15;;;;;;;11.57;7.10;;;8.90;80.10;;;;;;5039352;28;20068;-59
2023/02/12 11:30:51;;;;;;;11.23;7.68;;;8.90;80.20;;;;;;5039128;28;20127;-57
2023/02/12 11:33:27;;;;;;;9.65;6.75;;;9.00;80.20;;;;;;5039802;28;20049;-59
2023/02/12 11:36:13;;;;;;;8.40;5.90;;;9.10;79.80;;;;;;5039461;28;20033;-58
2023/02/12 11:38:57;;;;;;;8.88;6.55;;;9.10;79.50;;;;;;5039616;28;20040;-59
2023/02/12 11:41:25;;;;;;;8.93;6.05;;;9.10;79.10;;;;;;5038343;28;20563;-58
2023/02/12 11:43:51;;;;;;;7.72;5.85;;;9.20;79.10;;;;;;5039216;28;20246;-59
2023/02/12 11:46:24;;;;;;;9.40;6.57;;;9.20;79.00;;;;;;5039077;28;20040;-59
2023/02/12 11:48:51;;;;;;;8.27;6.03;;;9.20;78.90;;;;;;5038781;28;20037;-57
2023/02/12 11:51:25;;;;;;;7.88;5.50;;;9.20;79.10;;;;;;5034364;28;20038;-59
2023/02/12 11:53:53;;;;;;;7.50;5.23;;;9.30;79.00;;;;;;5035131;28;20034;-57
2023/02/12 11:56:19;;;;;;;8.75;5.43;;;9.30;78.80;;;;;;5028365;28;20060;-59
2023/02/12 11:58:50;;;;;;;7.20;5.28;;;9.30;78.60;;;;;;5033752;28;20045;-55
2023/02/12 12:01:21;;;;;;;13.68;7.72;;;9.40;78.40;;;;;;5033188;28;20033;-59
2023/02/12 12:04:04;;;;;;;14.73;8.63;;;9.40;78.40;;;;;;5033178;28;20029;-58
2023/02/12 12:06:37;;;;;;;13.23;7.03;;;9.40;78.50;;;;;;5026134;28;20037;-57
2023/02/12 12:09:16;;;;;;;10.70;6.68;;;9.40;78.40;;;;;;5031764;28;20037;-57
2023/02/12 12:12:09;;;;;;;8.38;5.93;;;9.40;78.30;;;;;;5025527;28;20175;-60
2023/02/12 12:21:17;;;;;;;7.90;5.30;;;9.50;78.40;;;;;;5034913;28;20191;-58
2023/02/12 12:23:50;;;;;;;8.98;5.93;;;9.60;78.60;;;;;;5033290;28;20120;-60
2023/02/12 12:26:28;;;;;;;7.60;5.50;;;9.60;78.40;;;;;;5036619;28;20086;-57
2023/02/12 12:28:54;;;;;;;6.50;4.75;;;9.60;79.40;;;;;;5033260;28;20124;-58
2023/02/12 12:31:25;;;;;;;5.60;4.30;;;9.60;78.50;;;;;;5035950;28;20548;-57
2023/02/12 12:33:59;;;;;;;6.80;4.30;;;9.60;78.10;;;;;;5035845;28;20129;-59
2023/02/12 12:37:01;;;;;;;7.22;5.10;;;9.60;77.90;;;;;;5025666;28;20574;-59
2023/02/12 12:39:54;;;;;;;7.18;4.47;;;9.60;78.70;;;;;;5014303;28;20607;-59
2023/02/12 12:42:25;;;;;;;7.95;4.93;;;9.60;77.90;;;;;;5022780;28;20108;-58
2023/02/12 12:45:07;;;;;;;9.35;5.55;;;9.60;78.10;;;;;;5022955;28;20431;-59
2023/02/12 12:47:51;;;;;;;10.63;7.05;;;9.60;78.10;;;;;;5026213;28;20103;-59
2023/02/12 12:50:46;;;;;;;11.33;7.67;;;9.60;78.10;;;;;;5012948;28;20033;-56
2023/02/12 12:53:23;;;;;;;10.98;7.07;;;9.60;78.30;;;;;;5016601;28;20363;-59
2023/02/12 12:56:17;;;;;;;10.35;6.93;;;9.60;78.20;;;;;;5024079;28;20041;-59
2023/02/12 12:59:06;;;;;;;14.48;7.63;;;9.60;78.30;;;;;;5022339;28;20099;-57
2023/02/12 13:02:07;;;;;;;11.35;7.68;;;9.50;78.40;;;;;;5020313;28;20583;-59
2023/02/12 13:04:41;;;;;;;11.35;7.70;;;9.50;78.30;;;;;;5011863;28;20417;-60
2023/02/12 13:07:10;;;;;;;11.57;7.90;;;9.40;78.20;;;;;;5023073;28;20100;-59
2023/02/12 13:10:06;;;;;;;12.57;7.95;;;9.40;78.60;;;;;;5022399;28;20595;-59
2023/02/12 13:12:42;;;;;;;11.43;7.55;;;9.40;79.10;;;;;;5025265;28;20029;-60